Time;durP1;ratioP1;P1;durP2;ratioP2;P2;SDS_P1;SDS_P2;PMS_P1;PMS_P2;Temp;Humidity;BMP_temperature;BMP_pressure;BME280_temperature;BME280_humidity;BME280_pressure;Samples;Min_cycle;Max_cycle;Signal;HPM_P1;HPM_P2
2023/06/11 00:00:32;;;;;;;5.10;3.10;;;;;;;;;;5051914;28;20494;-32
2023/06/11 00:02:59;;;;;;;4.53;3.33;;;;;;;;;;5051402;28;20059;-30
2023/06/11 00:05:28;;;;;;;5.80;3.40;;;;;;;;;;5051922;28;20476;-32
2023/06/11 00:08:00;;;;;;;6.00;3.40;;;23.00;59.00;;;;;;5034242;28;20059;-30
2023/06/11 00:10:27;;;;;;;5.07;3.60;;;23.40;68.40;;;;;;5051897;28;20056;-30
2023/06/11 00:12:55;;;;;;;5.22;3.20;;;;;;;;;;5051544;28;20056;-30
2023/06/11 00:15:22;;;;;;;4.00;3.25;;;;;;;;;;5051796;28;20508;-30
2023/06/11 00:17:49;;;;;;;4.78;3.47;;;;;;;;;;5051903;28;20485;-30
2023/06/11 00:20:15;;;;;;;5.40;3.55;;;23.40;74.90;;;;;;5040992;28;20483;-30
2023/06/11 00:22:43;;;;;;;4.80;3.42;;;23.00;59.00;;;;;;5031600;28;20049;-31
2023/06/11 00:25:11;;;;;;;4.22;3.20;;;23.30;74.50;;;;;;5032688;28;20491;-30
2023/06/11 00:27:38;;;;;;;3.90;3.50;;;23.40;72.30;;;;;;5051405;28;20049;-30
2023/06/11 00:30:06;;;;;;;6.65;3.28;;;22.50;58.60;;;;;;5051220;28;20136;-30
2023/06/11 00:32:33;;;;;;;4.82;3.60;;;23.10;69.40;;;;;;5051365;28;20049;-29
2023/06/11 00:35:01;;;;;;;4.57;3.60;;;22.80;74.40;;;;;;5051716;28;20077;-30
2023/06/11 00:37:30;;;;;;;3.80;3.40;;;22.80;73.90;;;;;;5050895;28;20521;-30
2023/06/11 00:39:57;;;;;;;4.50;3.35;;;;;;;;;;5051817;28;20118;-32
2023/06/11 00:42:27;;;;;;;4.90;3.80;;;23.00;58.90;;;;;;5051036;28;20132;-30
2023/06/11 00:44:54;;;;;;;4.53;3.67;;;23.20;73.30;;;;;;5051470;28;20041;-30
2023/06/11 00:47:21;;;;;;;5.00;3.65;;;23.10;74.30;;;;;;5051199;28;20467;-30
2023/06/11 00:49:48;;;;;;;4.47;3.60;;;;;;;;;;5051664;28;20053;-30
2023/06/11 00:52:16;;;;;;;4.28;3.45;;;22.60;73.90;;;;;;5051532;28;20055;-29
2023/06/11 00:54:43;;;;;;;4.50;3.50;;;22.40;74.70;;;;;;5051551;28;20563;-30
2023/06/11 00:57:10;;;;;;;4.93;3.50;;;;;;;;;;5051509;28;20131;-31
2023/06/11 00:59:38;;;;;;;3.63;3.20;;;22.90;58.80;;;;;;5051344;28;20049;-30
2023/06/11 01:02:09;;;;;;;4.47;3.65;;;22.60;74.00;;;;;;5050968;28;20052;-30
2023/06/11 01:04:36;;;;;;;5.70;3.90;;;;;;;;;;5051662;28;20049;-32
2023/06/11 01:07:05;;;;;;;3.78;3.35;;;22.50;74.00;;;;;;5051439;28;20049;-30
2023/06/11 01:09:31;;;;;;;4.13;3.45;;;23.10;75.10;;;;;;5051331;28;20055;-30
2023/06/11 01:11:58;;;;;;;3.90;3.50;;;22.70;62.60;;;;;;5051293;28;20490;-30
2023/06/11 01:14:25;;;;;;;4.57;3.55;;;;;;;;;;5051068;28;20052;-30
2023/06/11 01:17:02;;;;;;;6.03;3.70;;;22.90;58.80;;;;;;5037700;28;20132;-31
2023/06/11 01:20:08;;;;;;;4.93;3.75;;;22.90;58.80;;;;;;5043418;28;20049;-30
2023/06/11 01:22:39;;;;;;;5.00;3.63;;;22.90;58.90;;;;;;4950907;29;20051;-31
2023/06/11 01:25:17;;;;;;;6.60;3.80;;;23.40;74.40;;;;;;4950485;29;20085;-29
2023/06/11 01:28:06;;;;;;;4.10;3.70;;;22.80;74.20;;;;;;4989954;28;20172;-29
2023/06/11 01:30:35;;;;;;;3.88;3.42;;;22.70;59.10;;;;;;5031102;28;20468;-30
2023/06/11 01:33:02;;;;;;;5.43;3.70;;;22.10;59.80;;;;;;5031210;28;20129;-30
2023/06/11 01:35:29;;;;;;;4.35;3.70;;;23.20;64.00;;;;;;5034425;28;20048;-30
2023/06/11 01:37:59;;;;;;;3.88;3.47;;;23.40;75.20;;;;;;5050487;28;20157;-30
2023/06/11 01:40:27;;;;;;;4.30;3.83;;;22.90;74.70;;;;;;5051628;28;20544;-29
2023/06/11 01:42:54;;;;;;;4.05;3.60;;;23.10;58.90;;;;;;5053969;28;20132;-30
2023/06/11 01:45:22;;;;;;;5.70;3.92;;;22.80;58.70;;;;;;5054503;28;20130;-31
2023/06/11 01:47:50;;;;;;;5.05;3.67;;;;;;;;;;5054372;28;20049;-30
2023/06/11 01:50:17;;;;;;;4.57;3.67;;;22.70;74.70;;;;;;5054592;28;20099;-30
2023/06/11 01:52:44;;;;;;;4.57;3.75;;;;;;;;;;5053868;28;20417;-30
2023/06/11 01:55:10;;;;;;;4.72;4.13;;;23.10;74.40;;;;;;5054547;28;20409;-30
2023/06/11 01:57:38;;;;;;;4.43;3.97;;;;;;;;;;5036693;28;20144;-32
2023/06/11 02:00:06;;;;;;;5.55;3.50;;;23.80;74.70;;;;;;5054322;28;20059;-30
2023/06/11 02:02:34;;;;;;;4.38;3.97;;;22.90;74.40;;;;;;5053712;28;20049;-32
2023/06/11 02:05:01;;;;;;;5.25;4.05;;;;;;;;;;5054225;28;20049;-32
2023/06/11 02:07:28;;;;;;;4.43;4.00;;;23.50;71.40;;;;;;5054097;28;20521;-32
2023/06/11 02:09:55;;;;;;;4.25;3.75;;;22.70;74.20;;;;;;5053680;28;20126;-32
2023/06/11 02:12:21;;;;;;;4.00;3.60;;;23.00;74.20;;;;;;5053618;28;20124;-32
2023/06/11 02:14:48;;;;;;;4.47;4.07;;;22.70;65.00;;;;;;5053724;28;20136;-31
2023/06/11 02:17:15;;;;;;;4.50;4.07;;;23.20;74.30;;;;;;5054490;28;20073;-31
2023/06/11 02:19:43;;;;;;;4.75;3.70;;;21.80;74.40;;;;;;5054128;28;20053;-32
2023/06/11 02:22:10;;;;;;;5.25;4.07;;;;;;;;;;5053694;28;20083;-32
2023/06/11 02:24:37;;;;;;;5.28;3.65;;;23.10;74.60;;;;;;5053805;28;20128;-31
2023/06/11 02:27:04;;;;;;;4.18;3.78;;;22.40;73.80;;;;;;5044118;28;20120;-32
2023/06/11 02:29:30;;;;;;;5.15;3.85;;;23.70;66.40;;;;;;5053666;28;20131;-32
2023/06/11 02:31:57;;;;;;;4.35;3.95;;;23.60;75.30;;;;;;5053663;28;20132;-32
2023/06/11 02:34:24;;;;;;;4.95;4.32;;;23.20;74.30;;;;;;5053644;28;20132;-31
2023/06/11 02:36:52;;;;;;;4.10;3.70;;;23.10;59.70;;;;;;5053091;28;20045;-31
2023/06/11 02:39:19;;;;;;;4.55;4.13;;;22.70;74.10;;;;;;5053345;28;20055;-32
2023/06/11 02:41:46;;;;;;;4.60;4.10;;;;;;;;;;5053384;28;20053;-31
2023/06/11 02:44:13;;;;;;;5.47;3.90;;;22.60;69.60;;;;;;5052683;28;20043;-31
2023/06/11 02:46:40;;;;;;;5.18;4.35;;;22.50;74.30;;;;;;5053344;28;20049;-31
2023/06/11 02:49:06;;;;;;;4.78;4.10;;;23.50;74.90;;;;;;5052953;28;20052;-32
2023/06/11 02:51:33;;;;;;;4.57;4.18;;;22.50;64.80;;;;;;5052924;28;20055;-31
2023/06/11 02:54:02;;;;;;;5.18;4.20;;;22.50;63.20;;;;;;5052989;28;20147;-32
2023/06/11 02:56:29;;;;;;;4.90;3.90;;;;;;;;;;5053205;28;20052;-31
2023/06/11 02:58:56;;;;;;;5.20;4.50;;;23.60;75.30;;;;;;5053017;28;20127;-32
2023/06/11 03:01:23;;;;;;;4.68;4.20;;;22.70;74.80;;;;;;5052533;28;20131;-32
2023/06/11 03:03:50;;;;;;;5.05;4.30;;;;;;;;;;5052941;28;20133;-31
2023/06/11 03:06:16;;;;;;;4.65;4.15;;;23.00;74.20;;;;;;5052815;28;20143;-32
2023/06/11 03:08:43;;;;;;;4.10;3.70;;;22.70;74.10;;;;;;5044821;28;20053;-31
2023/06/11 03:11:11;;;;;;;4.65;4.22;;;21.60;66.90;;;;;;5032602;28;20136;-32
2023/06/11 03:13:38;;;;;;;5.30;4.32;;;;;;;;;;5032757;28;20130;-31
2023/06/11 03:16:05;;;;;;;4.55;4.15;;;23.10;73.10;;;;;;5032960;28;20573;-32
2023/06/11 03:18:32;;;;;;;4.57;4.18;;;;;;;;;;5043225;28;20045;-31
2023/06/11 03:20:59;;;;;;;4.88;4.22;;;;;;;;;;5052668;28;20056;-31
2023/06/11 03:23:26;;;;;;;4.18;3.78;;;;;;;;;;5052202;28;20056;-31
2023/06/11 03:25:53;;;;;;;5.82;4.30;;;21.70;74.40;;;;;;5045558;28;20124;-32
2023/06/11 03:28:21;;;;;;;4.50;4.10;;;22.60;74.10;;;;;;5032395;28;20045;-32
2023/06/11 03:30:48;;;;;;;4.57;4.18;;;23.30;74.40;;;;;;5032624;28;20129;-32
2023/06/11 03:33:14;;;;;;;4.75;4.22;;;22.10;61.20;;;;;;5042575;28;20044;-32
2023/06/11 03:35:41;;;;;;;4.65;4.22;;;22.70;73.30;;;;;;5052701;28;20088;-32
2023/06/11 03:38:08;;;;;;;4.70;4.30;;;23.60;74.50;;;;;;5051712;28;20131;-32
2023/06/11 03:40:35;;;;;;;4.43;4.03;;;23.00;61.70;;;;;;5052131;28;20045;-32
2023/06/11 03:43:02;;;;;;;4.80;4.07;;;;;;;;;;5051923;28;20489;-32
2023/06/11 03:45:30;;;;;;;4.70;4.20;;;22.60;58.40;;;;;;5052208;28;20394;-31
2023/06/11 03:47:58;;;;;;;4.47;4.07;;;;;;;;;;5051495;28;20037;-31
2023/06/11 03:50:24;;;;;;;4.47;4.07;;;23.20;75.10;;;;;;5052044;28;20106;-32
2023/06/11 03:52:51;;;;;;;5.93;4.35;;;22.90;65.80;;;;;;5051780;28;20135;-31
2023/06/11 03:55:18;;;;;;;4.63;4.13;;;23.60;74.60;;;;;;5052373;28;20059;-32
2023/06/11 03:57:45;;;;;;;4.78;4.35;;;22.90;74.20;;;;;;5051990;28;20049;-32
2023/06/11 04:00:13;;;;;;;4.93;4.43;;;22.10;73.60;;;;;;5051009;28;20080;-32
2023/06/11 04:02:41;;;;;;;5.25;4.30;;;21.80;73.90;;;;;;5051673;28;20135;-31
2023/06/11 04:05:08;;;;;;;4.65;4.20;;;22.00;73.90;;;;;;5044194;28;20056;-32
2023/06/11 04:07:35;;;;;;;4.78;4.22;;;23.00;75.00;;;;;;5051288;28;20051;-32
2023/06/11 04:10:03;;;;;;;5.82;4.30;;;;;;;;;;5051816;28;20045;-32
2023/06/11 04:12:30;;;;;;;4.35;3.95;;;;;;;;;;5051520;28;20057;-31
2023/06/11 04:14:56;;;;;;;4.68;4.18;;;22.80;73.90;;;;;;5052038;28;20128;-32
2023/06/11 04:17:23;;;;;;;6.18;4.32;;;23.10;74.70;;;;;;5051775;28;20075;-32
2023/06/11 04:19:51;;;;;;;4.97;4.32;;;22.50;62.50;;;;;;5051127;28;20572;-31
2023/06/11 04:22:18;;;;;;;6.93;4.60;;;22.50;60.80;;;;;;5044474;28;20123;-31
2023/06/11 04:24:45;;;;;;;4.30;3.90;;;21.80;73.60;;;;;;5050503;28;20468;-31
2023/06/11 04:27:12;;;;;;;4.32;3.92;;;22.60;58.40;;;;;;5033804;28;20049;-31
2023/06/11 04:29:40;;;;;;;5.32;4.57;;;22.60;74.50;;;;;;5031551;28;20502;-32
2023/06/11 04:32:08;;;;;;;5.38;4.30;;;22.00;74.40;;;;;;5031669;28;20131;-32
2023/06/11 04:34:37;;;;;;;5.25;4.65;;;22.80;74.20;;;;;;5031665;28;20056;-32
2023/06/11 04:37:08;;;;;;;4.95;4.45;;;22.60;61.10;;;;;;5041099;28;20502;-32
2023/06/11 04:39:35;;;;;;;5.53;4.15;;;23.20;74.40;;;;;;5051429;28;20413;-32
2023/06/11 04:42:02;;;;;;;5.05;4.25;;;22.20;60.60;;;;;;5051536;28;20137;-31
2023/06/11 04:44:29;;;;;;;4.95;4.45;;;;;;;;;;5051752;28;20517;-31
2023/06/11 04:46:57;;;;;;;4.50;4.10;;;22.90;75.10;;;;;;5051484;28;20075;-31
2023/06/11 04:49:24;;;;;;;4.65;4.13;;;;;;;;;;5051391;28;20041;-31
2023/06/11 04:51:52;;;;;;;6.28;4.47;;;22.60;67.20;;;;;;5051850;28;20080;-31
2023/06/11 04:54:21;;;;;;;6.10;5.07;;;22.90;67.70;;;;;;5051201;28;20087;-32
2023/06/11 04:56:48;;;;;;;5.22;4.72;;;23.10;60.70;;;;;;5051059;28;20053;-32
2023/06/11 04:59:14;;;;;;;5.25;4.63;;;22.20;73.80;;;;;;5051154;28;20055;-32
2023/06/11 05:01:46;;;;;;;5.80;5.10;;;22.40;61.70;;;;;;5051982;28;20132;-32
2023/06/11 05:04:14;;;;;;;7.18;5.07;;;23.50;63.40;;;;;;5048586;28;20058;-32
2023/06/11 05:06:44;;;;;;;5.70;5.05;;;21.80;73.70;;;;;;5050874;28;20612;-32
2023/06/11 05:09:11;;;;;;;6.57;5.32;;;;;;;;;;5050953;28;20041;-31
2023/06/11 05:11:40;;;;;;;8.18;5.00;;;22.50;74.00;;;;;;5050576;28;20045;-32
2023/06/11 05:14:08;;;;;;;9.68;5.28;;;;;;;;;;5050774;28;20124;-31
2023/06/11 05:16:34;;;;;;;6.05;5.10;;;22.60;74.10;;;;;;5052120;28;20091;-32
2023/06/11 05:19:02;;;;;;;5.72;5.13;;;;;;;;;;5054700;28;20442;-31
2023/06/11 05:21:29;;;;;;;6.00;4.97;;;22.60;74.80;;;;;;5054054;28;20136;-32
2023/06/11 05:24:06;;;;;;;7.05;5.70;;;22.00;62.70;;;;;;5052020;28;20409;-32
2023/06/11 05:26:33;;;;;;;6.70;5.50;;;23.00;74.40;;;;;;5051091;28;20051;-32
2023/06/11 05:29:01;;;;;;;7.28;5.40;;;22.50;58.40;;;;;;5054597;28;20049;-32
2023/06/11 05:31:29;;;;;;;7.45;5.28;;;;;;;;;;5054919;28;20128;-31
2023/06/11 05:33:56;;;;;;;8.35;5.40;;;;;;;;;;5054609;28;20147;-31
2023/06/11 05:36:23;;;;;;;5.97;5.03;;;21.70;73.50;;;;;;5051412;28;20045;-32
2023/06/11 05:38:51;;;;;;;6.38;5.40;;;22.90;74.20;;;;;;5045917;28;20548;-32
2023/06/11 05:41:18;;;;;;;5.95;5.32;;;;;;;;;;5054490;28;20053;-32
2023/06/11 05:43:46;;;;;;;6.38;5.60;;;23.10;74.20;;;;;;5054540;28;20049;-32
2023/06/11 05:46:14;;;;;;;5.95;5.35;;;22.50;58.30;;;;;;5054146;28;20120;-32
2023/06/11 05:48:41;;;;;;;6.63;5.40;;;22.20;74.60;;;;;;5054367;28;20102;-32
2023/06/11 05:51:08;;;;;;;7.88;5.57;;;22.80;75.00;;;;;;5054683;28;20044;-32
2023/06/11 05:53:35;;;;;;;6.57;5.50;;;;;;;;;;5054150;28;20490;-32
2023/06/11 05:56:04;;;;;;;12.75;6.22;;;23.10;66.90;;;;;;5048335;28;20417;-32
2023/06/11 05:58:32;;;;;;;8.13;5.65;;;23.00;60.70;;;;;;5035780;28;20111;-31
2023/06/11 06:01:01;;;;;;;7.30;5.60;;;22.40;73.90;;;;;;5035754;28;20045;-32
2023/06/11 06:03:29;;;;;;;6.93;5.55;;;22.30;73.80;;;;;;5051293;28;20057;-32
2023/06/11 06:05:58;;;;;;;9.07;5.97;;;;;;;;;;5054213;28;20052;-32
2023/06/11 06:08:25;;;;;;;11.35;6.25;;;22.30;69.00;;;;;;5053937;28;20110;-32
2023/06/11 06:10:51;;;;;;;7.85;5.55;;;22.30;70.00;;;;;;5041530;28;20049;-32
2023/06/11 06:13:18;;;;;;;6.00;5.40;;;22.30;73.20;;;;;;5034001;28;20046;-32
2023/06/11 06:15:45;;;;;;;6.80;5.85;;;22.00;74.50;;;;;;5033154;28;20132;-32
2023/06/11 06:18:11;;;;;;;8.43;5.53;;;22.80;64.00;;;;;;5037987;28;20124;-32
2023/06/11 06:20:40;;;;;;;6.22;5.22;;;21.90;57.80;;;;;;5053157;28;20140;-32
2023/06/11 06:23:07;;;;;;;6.05;5.05;;;22.00;74.60;;;;;;5053471;28;20486;-32
2023/06/11 06:25:37;;;;;;;5.88;5.28;;;;;;;;;;5049449;28;20053;-31
2023/06/11 06:28:04;;;;;;;6.40;5.38;;;23.00;66.20;;;;;;5033276;28;20136;-32
2023/06/11 06:30:32;;;;;;;7.05;5.18;;;22.80;74.40;;;;;;5033834;28;20089;-32
2023/06/11 06:32:59;;;;;;;7.70;5.60;;;22.60;65.30;;;;;;5038668;28;20059;-32
2023/06/11 06:35:26;;;;;;;9.25;5.70;;;;;;;;;;5052889;28;20578;-31
2023/06/11 06:37:54;;;;;;;7.88;5.85;;;22.50;74.20;;;;;;5035394;28;20493;-32
2023/06/11 06:40:21;;;;;;;7.78;5.82;;;22.60;74.70;;;;;;5053278;28;20136;-32
2023/06/11 06:42:48;;;;;;;8.38;5.80;;;;;;;;;;5053303;28;20124;-31
2023/06/11 06:45:15;;;;;;;7.10;5.75;;;22.70;74.10;;;;;;5053488;28;20071;-32
2023/06/11 06:47:42;;;;;;;6.13;5.50;;;22.30;74.70;;;;;;5053211;28;20049;-32
2023/06/11 06:50:09;;;;;;;6.22;5.57;;;22.30;63.40;;;;;;5053547;28;20132;-30
2023/06/11 06:52:36;;;;;;;7.03;5.68;;;22.10;74.60;;;;;;5052956;28;20624;-30
2023/06/11 06:55:05;;;;;;;7.28;5.53;;;22.50;58.40;;;;;;5034140;28;20124;-31
2023/06/11 06:57:32;;;;;;;10.70;6.30;;;22.20;74.30;;;;;;5033410;28;20136;-30
2023/06/11 06:59:59;;;;;;;7.55;6.15;;;;;;;;;;5033359;28;20049;-30
2023/06/11 07:02:26;;;;;;;7.32;6.07;;;;;;;;;;5032735;28;20406;-29
2023/06/11 07:04:53;;;;;;;6.35;5.65;;;22.40;63.00;;;;;;5038233;28;20413;-30
2023/06/11 07:07:19;;;;;;;7.63;5.78;;;22.40;74.20;;;;;;5050199;28;20124;-30
2023/06/11 07:09:46;;;;;;;6.45;5.70;;;22.10;73.70;;;;;;5052418;28;20052;-30
2023/06/11 07:12:14;;;;;;;7.90;5.45;;;22.40;66.10;;;;;;5052504;28;20151;-30
2023/06/11 07:14:41;;;;;;;7.22;6.10;;;22.20;66.40;;;;;;5052681;28;20513;-30
2023/06/11 07:17:08;;;;;;;8.75;5.63;;;23.00;74.20;;;;;;5053149;28;20131;-30
2023/06/11 07:19:35;;;;;;;8.10;5.97;;;22.30;73.80;;;;;;5052745;28;20508;-30
2023/06/11 07:22:02;;;;;;;6.20;5.60;;;;;;;;;;5052760;28;20235;-33
2023/06/11 07:24:29;;;;;;;7.90;5.63;;;22.70;74.20;;;;;;5032651;28;20136;-30
2023/06/11 07:26:56;;;;;;;9.45;5.88;;;22.80;74.60;;;;;;5045392;28;20124;-30
2023/06/11 07:29:25;;;;;;;9.75;6.25;;;22.80;74.00;;;;;;5052688;28;20071;-30
2023/06/11 07:31:52;;;;;;;7.75;5.60;;;;;;;;;;5052681;28;20132;-30
2023/06/11 07:34:20;;;;;;;7.93;6.10;;;;;;;;;;5051612;28;20059;-30
2023/06/11 07:36:46;;;;;;;11.05;5.65;;;23.50;74.30;;;;;;5048100;28;20506;-30
2023/06/11 07:39:13;;;;;;;9.43;6.03;;;22.80;73.90;;;;;;5051342;28;20128;-30
2023/06/11 07:41:40;;;;;;;7.00;5.90;;;;;;;;;;5052020;28;20580;-32
2023/06/11 07:44:07;;;;;;;13.27;5.88;;;22.40;73.60;;;;;;5052267;28;20486;-30
2023/06/11 07:46:35;;;;;;;6.95;5.97;;;21.50;73.30;;;;;;5052285;28;20136;-30
2023/06/11 07:49:02;;;;;;;7.35;5.80;;;23.00;70.00;;;;;;5052440;28;20485;-30
2023/06/11 07:51:29;;;;;;;7.82;6.15;;;22.60;67.60;;;;;;5061624;28;20062;-30
2023/06/11 07:53:58;;;;;;;5.80;5.20;;;;;;;;;;5051962;28;20075;-30
2023/06/11 07:56:26;;;;;;;8.63;5.43;;;22.70;74.10;;;;;;5052188;28;20055;-30
2023/06/11 07:58:52;;;;;;;5.85;5.22;;;22.40;64.80;;;;;;5052446;28;20053;-29
2023/06/11 08:01:20;;;;;;;6.10;5.50;;;22.50;66.20;;;;;;5045756;28;20513;-30
2023/06/11 08:03:48;;;;;;;6.32;5.25;;;22.80;58.60;;;;;;5042174;28;20125;-32
2023/06/11 08:06:15;;;;;;;6.70;5.55;;;;;;;;;;5035240;28;20052;-30
2023/06/11 08:08:42;;;;;;;8.10;5.55;;;;;;;;;;5051634;28;20045;-29
2023/06/11 08:11:09;;;;;;;7.45;5.43;;;;;;;;;;5051741;28;20116;-32
2023/06/11 08:13:36;;;;;;;5.30;4.60;;;22.80;73.90;;;;;;5051533;28;20049;-30
2023/06/11 08:16:02;;;;;;;7.80;5.68;;;23.00;73.90;;;;;;5035008;28;20132;-30
2023/06/11 08:18:29;;;;;;;7.03;5.30;;;22.40;64.10;;;;;;5034493;28;20055;-30
2023/06/11 08:20:58;;;;;;;5.93;5.28;;;23.00;74.30;;;;;;5042537;28;20045;-30
2023/06/11 08:23:25;;;;;;;7.10;5.35;;;;;;;;;;5031664;28;20484;-31
2023/06/11 08:25:52;;;;;;;7.75;5.30;;;23.30;74.70;;;;;;5045364;28;20136;-30
2023/06/11 08:28:20;;;;;;;6.82;5.63;;;23.20;74.20;;;;;;5051886;28;20128;-30
2023/06/11 08:30:47;;;;;;;5.75;5.15;;;22.70;73.70;;;;;;5043674;28;20045;-29
2023/06/11 08:33:14;;;;;;;6.97;5.30;;;;;;;;;;5033562;28;20454;-30
2023/06/11 08:35:41;;;;;;;6.03;5.03;;;24.00;74.40;;;;;;5050986;28;20076;-30
2023/06/11 08:38:11;;;;;;;7.78;5.20;;;22.90;58.40;;;;;;5050373;28;20127;-31
2023/06/11 08:40:40;;;;;;;5.70;5.20;;;22.90;58.40;;;;;;5051602;28;20068;-32
2023/06/11 08:43:07;;;;;;;6.55;5.00;;;22.60;73.50;;;;;;5050770;28;20135;-30
2023/06/11 08:45:34;;;;;;;6.20;4.82;;;;;;;;;;5040301;28;20498;-31
2023/06/11 08:48:02;;;;;;;5.75;5.15;;;22.90;58.40;;;;;;5051173;28;20446;-30
2023/06/11 08:50:29;;;;;;;5.78;4.72;;;22.80;73.40;;;;;;5033715;28;20137;-30
2023/06/11 08:53:00;;;;;;;9.45;5.43;;;22.90;73.80;;;;;;5035727;28;20145;-30
2023/06/11 08:55:28;;;;;;;6.72;4.53;;;23.40;74.00;;;;;;5035769;28;20046;-30
2023/06/11 08:57:55;;;;;;;5.47;4.97;;;22.60;73.40;;;;;;5035687;28;20549;-30
2023/06/11 09:00:22;;;;;;;5.07;4.57;;;23.80;64.90;;;;;;5043497;28;20052;-30
2023/06/11 09:02:49;;;;;;;6.40;5.28;;;23.30;74.30;;;;;;5046597;28;20053;-29
2023/06/11 09:05:16;;;;;;;5.55;4.82;;;22.90;73.60;;;;;;5055711;28;20052;-30
2023/06/11 09:07:48;;;;;;;5.18;4.68;;;23.00;58.30;;;;;;5055352;28;20576;-30
2023/06/11 09:10:15;;;;;;;6.53;4.97;;;22.40;70.40;;;;;;5055166;28;20051;-30
2023/06/11 09:12:43;;;;;;;5.97;4.75;;;23.50;73.90;;;;;;5054930;28;20478;-30
2023/06/11 09:15:12;;;;;;;5.15;4.60;;;22.70;73.30;;;;;;5055332;28;20131;-30
2023/06/11 09:17:40;;;;;;;5.63;5.10;;;23.10;58.30;;;;;;5054857;28;20421;-32
2023/06/11 09:20:08;;;;;;;5.55;4.95;;;22.30;57.80;;;;;;5044965;28;20037;-30
2023/06/11 09:22:36;;;;;;;7.32;5.18;;;23.10;58.30;;;;;;5034943;28;20498;-31
2023/06/11 09:25:04;;;;;;;8.75;5.32;;;23.20;70.70;;;;;;5043404;28;20049;-30
2023/06/11 09:27:31;;;;;;;5.85;5.25;;;24.00;73.90;;;;;;5047960;28;20053;-29
2023/06/11 09:30:07;;;;;;;6.10;5.47;;;22.70;68.00;;;;;;5046536;28;20045;-30
2023/06/11 09:32:38;;;;;;;6.05;5.45;;;23.20;74.20;;;;;;5034727;28;20371;-30
2023/06/11 09:35:06;;;;;;;6.43;5.72;;;22.30;71.50;;;;;;5034771;28;20581;-30
2023/06/11 09:37:39;;;;;;;6.22;5.63;;;22.90;74.20;;;;;;5048371;28;20056;-30
2023/06/11 09:40:09;;;;;;;6.45;5.78;;;22.50;73.20;;;;;;5053894;28;20128;-30
2023/06/11 09:42:36;;;;;;;7.75;6.00;;;23.20;59.00;;;;;;5045149;28;20481;-30
2023/06/11 09:45:05;;;;;;;6.55;5.78;;;23.30;58.40;;;;;;5034586;28;20514;-31
2023/06/11 09:47:32;;;;;;;6.78;5.78;;;23.50;63.80;;;;;;5035095;28;20088;-30
2023/06/11 09:49:59;;;;;;;6.35;5.70;;;22.90;73.70;;;;;;5034309;28;20136;-30
2023/06/11 09:52:26;;;;;;;6.78;6.18;;;;;;;;;;5034297;28;20060;-32
2023/06/11 09:54:53;;;;;;;6.63;5.50;;;22.70;73.20;;;;;;5035209;28;20045;-30
2023/06/11 09:57:19;;;;;;;8.65;5.78;;;23.10;73.80;;;;;;5054120;28;20127;-30
2023/06/11 09:59:46;;;;;;;6.10;5.50;;;24.50;60.50;;;;;;5054511;28;20045;-30
2023/06/11 10:02:14;;;;;;;6.18;5.57;;;23.20;71.50;;;;;;5052680;28;20128;-30
2023/06/11 10:04:41;;;;;;;7.53;5.70;;;23.60;74.00;;;;;;5054584;28;20473;-30
2023/06/11 10:07:08;;;;;;;6.53;5.90;;;;;;;;;;5054388;28;20049;-31
2023/06/11 10:09:35;;;;;;;6.63;5.93;;;24.20;67.10;;;;;;5049136;28;20106;-30
2023/06/11 10:12:01;;;;;;;6.63;5.90;;;23.40;58.30;;;;;;5045051;28;20045;-32
2023/06/11 10:14:28;;;;;;;6.25;5.65;;;23.20;73.30;;;;;;5042275;28;20493;-30
2023/06/11 10:16:56;;;;;;;6.93;5.88;;;23.20;69.40;;;;;;5033924;28;20049;-30
2023/06/11 10:19:26;;;;;;;6.40;5.80;;;23.40;58.20;;;;;;5033957;28;20049;-30
2023/06/11 10:21:55;;;;;;;6.30;5.70;;;23.80;73.60;;;;;;5034143;28;20057;-30
2023/06/11 10:24:23;;;;;;;7.68;5.95;;;23.30;74.10;;;;;;5034173;28;20092;-30
2023/06/11 10:27:04;;;;;;;6.47;5.88;;;23.50;58.20;;;;;;5048496;28;20493;-30
2023/06/11 10:29:37;;;;;;;7.32;5.93;;;23.80;67.30;;;;;;5053640;28;20045;-30
2023/06/11 10:32:04;;;;;;;6.45;5.85;;;23.40;73.30;;;;;;5046772;28;20052;-30
2023/06/11 10:34:40;;;;;;;6.75;6.05;;;23.50;58.10;;;;;;5032499;28;20049;-30
2023/06/11 10:37:07;;;;;;;7.00;6.30;;;23.30;60.10;;;;;;5048315;28;20057;-30
2023/06/11 10:39:34;;;;;;;7.82;5.85;;;22.80;73.60;;;;;;5038507;28;20084;-30
2023/06/11 10:42:01;;;;;;;7.22;6.03;;;23.50;58.10;;;;;;5033248;28;20126;-30
2023/06/11 10:44:29;;;;;;;6.88;6.28;;;23.70;74.00;;;;;;5033623;28;20045;-30
2023/06/11 10:46:56;;;;;;;6.22;5.63;;;;;;;;;;5033497;28;20080;-30
2023/06/11 10:49:23;;;;;;;6.72;6.03;;;23.50;73.20;;;;;;5048931;28;20394;-30
2023/06/11 10:51:52;;;;;;;6.82;6.22;;;23.50;60.50;;;;;;5052987;28;20080;-30
2023/06/11 10:54:24;;;;;;;7.80;6.38;;;23.60;73.20;;;;;;5048361;28;20131;-30
2023/06/11 10:56:51;;;;;;;6.90;6.30;;;24.10;73.50;;;;;;5053230;28;20494;-30
2023/06/11 10:59:18;;;;;;;7.40;6.70;;;;;;;;;;5053597;28;20123;-30
2023/06/11 11:01:45;;;;;;;7.60;6.90;;;;;;;;;;5053123;28;20128;-30
2023/06/11 11:04:12;;;;;;;7.00;6.40;;;23.40;60.50;;;;;;5052947;28;20127;-30
2023/06/11 11:06:39;;;;;;;7.32;6.63;;;23.70;73.90;;;;;;5035096;28;20405;-29
2023/06/11 11:09:07;;;;;;;7.15;6.55;;;23.30;73.00;;;;;;5052643;28;20052;-29
2023/06/11 11:11:34;;;;;;;6.85;6.15;;;;;;;;;;5049840;28;20132;-31
2023/06/11 11:14:03;;;;;;;7.32;6.63;;;;;;;;;;5041541;28;20045;-30
2023/06/11 11:16:30;;;;;;;7.25;6.55;;;;;;;;;;5038397;28;20073;-31
2023/06/11 11:18:57;;;;;;;7.40;6.72;;;24.00;71.80;;;;;;5042725;28;20128;-30
2023/06/11 11:21:27;;;;;;;7.78;7.07;;;24.00;73.30;;;;;;5043563;28;20045;-29
2023/06/11 11:23:55;;;;;;;7.70;6.95;;;23.40;72.90;;;;;;5052458;28;20662;-30
2023/06/11 11:26:24;;;;;;;7.82;7.13;;;22.80;72.70;;;;;;5041421;28;20129;-30
2023/06/11 11:28:51;;;;;;;7.57;6.88;;;;;;;;;;5032836;28;20058;-30
2023/06/11 11:31:19;;;;;;;7.57;6.88;;;23.50;59.30;;;;;;5039889;28;20093;-30
2023/06/11 11:33:46;;;;;;;8.23;7.38;;;23.40;73.60;;;;;;5034772;28;20053;-30
2023/06/11 11:36:13;;;;;;;8.02;7.32;;;;;;;;;;5048092;28;20051;-32
2023/06/11 11:38:40;;;;;;;8.68;7.88;;;23.70;60.50;;;;;;5051892;28;20045;-30
2023/06/11 11:41:07;;;;;;;8.32;7.60;;;23.70;57.90;;;;;;5051693;28;20128;-31
2023/06/11 11:43:40;;;;;;;8.77;7.40;;;23.00;73.10;;;;;;5052136;28;20059;-30
2023/06/11 11:46:17;;;;;;;8.38;7.57;;;23.50;69.80;;;;;;5043469;28;20041;-29
2023/06/11 11:48:44;;;;;;;8.32;7.53;;;;;;;;;;5045638;28;20055;-30
2023/06/11 11:51:11;;;;;;;8.52;7.72;;;24.10;60.70;;;;;;5034692;28;20145;-30
2023/06/11 11:53:38;;;;;;;7.97;7.28;;;24.20;71.70;;;;;;5032056;28;20053;-30
2023/06/11 11:56:05;;;;;;;8.85;8.02;;;23.80;73.20;;;;;;5032161;28;20137;-30
2023/06/11 11:58:36;;;;;;;8.10;7.32;;;24.10;63.40;;;;;;5032117;28;20053;-29
2023/06/11 12:01:08;;;;;;;8.43;7.63;;;23.40;73.30;;;;;;5045636;28;20485;-30
2023/06/11 12:03:35;;;;;;;8.50;7.70;;;24.00;70.30;;;;;;5045654;28;20045;-29
2023/06/11 12:06:02;;;;;;;10.25;8.07;;;24.00;73.20;;;;;;5050970;28;20128;-30
2023/06/11 12:08:30;;;;;;;8.00;7.30;;;24.40;73.30;;;;;;5051670;28;20135;-30
2023/06/11 12:10:57;;;;;;;8.25;7.45;;;23.90;59.10;;;;;;5049573;28;20048;-30
2023/06/11 12:13:23;;;;;;;7.85;7.15;;;24.30;74.30;;;;;;5051117;28;20049;-30
2023/06/11 12:15:51;;;;;;;7.93;7.13;;;;;;;;;;5051898;28;20128;-30
2023/06/11 12:18:19;;;;;;;8.38;7.47;;;24.00;73.50;;;;;;5051242;28;20048;-30
2023/06/11 12:20:46;;;;;;;8.18;7.38;;;23.80;73.60;;;;;;5051252;28;20057;-29
2023/06/11 12:23:14;;;;;;;8.05;7.30;;;24.20;63.80;;;;;;5048615;28;20052;-30
2023/06/11 12:25:42;;;;;;;7.97;7.25;;;24.20;59.50;;;;;;5049207;28;20052;-30
2023/06/11 12:28:09;;;;;;;7.70;7.00;;;;;;;;;;5051090;28;20053;-32
2023/06/11 12:30:36;;;;;;;8.20;7.30;;;23.60;73.20;;;;;;5050036;28;20054;-30
2023/06/11 12:33:03;;;;;;;7.80;7.00;;;;;;;;;;5050174;28;20178;-29
2023/06/11 12:35:31;;;;;;;8.77;7.88;;;24.70;71.70;;;;;;5049926;28;20578;-30
2023/06/11 12:37:58;;;;;;;8.10;7.28;;;23.70;69.10;;;;;;5046425;28;20127;-30
2023/06/11 12:40:25;;;;;;;8.75;7.35;;;23.10;73.00;;;;;;5050015;28;20052;-29
2023/06/11 12:42:56;;;;;;;8.00;7.30;;;24.20;70.00;;;;;;5050913;28;20406;-30
2023/06/11 12:45:24;;;;;;;7.70;6.95;;;;;;;;;;5050808;28;20124;-32
2023/06/11 12:47:50;;;;;;;8.02;7.22;;;24.20;74.10;;;;;;5050470;28;20136;-30
2023/06/11 12:50:17;;;;;;;7.60;6.90;;;;;;;;;;5050905;28;20564;-32
2023/06/11 12:52:45;;;;;;;7.95;7.15;;;23.60;73.00;;;;;;5051284;28;20535;-30
2023/06/11 12:55:12;;;;;;;8.35;7.55;;;24.20;73.60;;;;;;5051076;28;20045;-30
2023/06/11 12:57:39;;;;;;;8.07;7.28;;;;;;;;;;5046459;28;20524;-30
2023/06/11 13:00:08;;;;;;;8.15;7.38;;;23.60;73.30;;;;;;5031610;28;20128;-30
2023/06/11 13:02:35;;;;;;;7.78;7.07;;;24.60;63.70;;;;;;5039354;28;20053;-29
2023/06/11 13:05:02;;;;;;;8.10;7.30;;;;;;;;;;5036703;28;20136;-32
2023/06/11 13:07:29;;;;;;;7.72;7.00;;;24.00;73.30;;;;;;5031697;28;20092;-30
2023/06/11 13:09:57;;;;;;;8.13;7.28;;;24.10;58.40;;;;;;5042659;28;20132;-30
2023/06/11 13:12:25;;;;;;;7.50;6.80;;;;;;;;;;5051311;28;20128;-31